Terminal Aerodrome Forecast
Issued by NWS Upton, NY

Home | Current Version | Previous Version | Text Only | Print | Product List | Glossary On
Versions: 1 2 3 4 5 6 7 8 9 10 11 12 13 14 15 16 17 18 19 20 21 22 23 24
000
FTUS41 KOKX 301400 AAA
TAFBDR
TAF AMD
KBDR 301440Z 3015/0112 08008KT P6SM OVC012
      TEMPO 3017/3019 SCT012 BKN025
     FM301900 08010KT P6SM SCT012 OVC080
     FM010400 06013KT P6SM OVC015=

USA.gov is the U.S. government's official web portal to all federal, state and local government web resources and services.